Vincent, Alabama
Current Conditions -  °F | °C
As of 12:15 PM on Tuesday 21 Oct 2014 (Local Time) from KSCD Reporting Station
Clear Clear  
Wind Chill: 23°   Ceiling: Unl
Heat Index: 23°   Visibility: 10mi
Dew Point: 14°   Wind: 3mph
Humidity: 57%   Direction: 320°NW
Pressure: 30.05"   Gusts: NA
Location:  33.38°N, 86.41°W
Report Text: KSCD 211715Z AUTO 32003KT 10SM CLR 23/14 A3005 RMK AO2 T02330143
Loading
Personal Weather Stations






























Interactive Weather Map
Tropical Storm Tracking
New forecast layout! Learn more

10-Day Weather Forecast

Advertisements
Track Severe Weather on mobile